Time;durP1;ratioP1;P1;durP2;ratioP2;P2;SDS_P1;SDS_P2;PMS_P1;PMS_P2;Temp;Humidity;BMP_temperature;BMP_pressure;BME280_temperature;BME280_humidity;BME280_pressure;Samples;Min_cycle;Max_cycle;Signal;HPM_P1;HPM_P2
2022/07/27 00:00:15;;;;;;;6.33;4.70;;;;;;;19.39;91.56;97523.14;1841513;78;20864;-60
2022/07/27 00:02:42;;;;;;;5.45;4.45;;;;;;;19.38;91.75;97522.38;1841765;78;20884;-60
2022/07/27 00:05:10;;;;;;;5.33;4.60;;;;;;;19.34;91.71;97522.83;1841402;78;20944;-59
2022/07/27 00:07:37;;;;;;;6.75;4.42;;;;;;;19.33;91.96;97523.98;1841402;78;21240;-60
2022/07/27 00:10:05;;;;;;;4.78;4.00;;;;;;;19.32;91.92;97519.69;1840837;78;21002;-59
2022/07/27 00:12:32;;;;;;;5.30;4.45;;;;;;;19.32;92.16;97520.25;1847228;77;21490;-59
2022/07/27 00:15:00;;;;;;;5.62;4.60;;;;;;;19.31;92.44;97525.48;1847381;77;20880;-59
2022/07/27 00:17:26;;;;;;;4.75;4.12;;;;;;;19.29;93.01;97523.70;1847438;77;20857;-60
2022/07/27 00:19:57;;;;;;;4.70;3.98;;;;;;;19.27;93.03;97530.03;1847381;77;20900;-60
2022/07/27 00:22:23;;;;;;;5.08;4.08;;;;;;;19.24;93.54;97530.20;1847351;77;20864;-60
2022/07/27 00:24:50;;;;;;;4.85;4.35;;;;;;;19.21;93.90;97523.33;1847250;77;20911;-61
2022/07/27 00:27:16;;;;;;;5.83;4.67;;;;;;;19.22;94.25;97524.92;1847339;77;20923;-60
2022/07/27 00:29:44;;;;;;;6.40;4.90;;;;;;;19.22;94.36;97520.25;1847436;77;20896;-60
2022/07/27 00:32:11;;;;;;;10.03;4.65;;;;;;;19.25;94.70;97529.61;1847496;77;21410;-59
2022/07/27 00:34:38;;;;;;;9.93;5.40;;;;;;;19.21;94.73;97529.55;1847547;77;21481;-59
2022/07/27 00:37:04;;;;;;;6.25;5.03;;;;;;;19.21;95.44;97530.13;1847248;77;20907;-59
2022/07/27 00:39:31;;;;;;;5.95;4.80;;;;;;;19.15;95.49;97521.47;1847271;77;20916;-60
2022/07/27 00:41:57;;;;;;;7.83;5.30;;;;;;;19.12;96.23;97532.46;1847369;77;20935;-60
2022/07/27 00:44:28;;;;;;;8.13;5.33;;;;;;;19.12;96.42;97527.03;1847260;77;21108;-60
2022/07/27 00:46:55;;;;;;;7.08;5.17;;;;;;;19.06;96.52;97518.97;1846417;77;20907;-60
2022/07/27 00:49:23;;;;;;;7.00;5.20;;;;;;;19.08;96.75;97515.33;1847484;77;21431;-59
2022/07/27 00:51:49;;;;;;;6.20;5.28;;;;;;;19.11;97.00;97511.91;1847221;77;20955;-60
2022/07/27 00:54:16;;;;;;;6.67;5.70;;;;;;;19.13;97.04;97506.91;1847293;77;20895;-60
2022/07/27 00:56:44;;;;;;;6.62;5.58;;;;;;;19.13;97.23;97508.26;1847246;77;21200;-61
2022/07/27 00:59:11;;;;;;;5.67;5.17;;;;;;;19.11;97.62;97514.62;1847308;77;20959;-59
2022/07/27 01:01:37;;;;;;;7.25;5.40;;;;;;;19.08;97.79;97517.25;1847218;77;21405;-59
2022/07/27 01:04:05;;;;;;;6.47;5.70;;;;;;;19.07;98.07;97511.05;1847524;77;21395;-59
2022/07/27 01:06:32;;;;;;;7.22;5.97;;;;;;;19.09;98.18;97512.84;1847362;77;20931;-59
2022/07/27 01:11:47;;;;;;;5.95;5.17;;;;;;;19.04;98.77;97500.91;1847166;77;20911;-59
2022/07/27 01:14:15;;;;;;;6.72;5.05;;;;;;;19.04;98.98;97498.19;1847228;77;20944;-58
2022/07/27 01:19:15;;;;;;;5.92;5.42;;;;;;;19.07;99.73;97482.55;1847253;77;20908;-59
2022/07/27 01:21:42;;;;;;;5.03;4.53;;;;;;;19.10;99.95;97483.17;1847431;77;21509;-59
2022/07/27 01:24:09;;;;;;;5.20;4.70;;;;;;;19.11;100.00;97479.34;1847253;77;20919;-59
2022/07/27 01:26:37;;;;;;;5.40;4.90;;;;;;;19.08;99.98;97484.11;1847321;77;20895;-59
2022/07/27 01:29:04;;;;;;;5.28;4.60;;;;;;;19.04;100.00;97484.63;1847336;77;20857;-60
2022/07/27 01:31:31;;;;;;;4.72;4.22;;;;;;;18.98;100.00;97484.67;1847275;77;20967;-59
2022/07/27 01:33:57;;;;;;;6.03;4.67;;;;;;;18.96;100.00;97480.17;1847237;77;21113;-58
2022/07/27 01:36:24;;;;;;;5.03;4.62;;;;;;;18.93;100.00;97472.77;1847295;77;20929;-58
2022/07/27 01:38:50;;;;;;;4.60;4.20;;;;;;;18.93;100.00;97475.48;1847306;77;20943;-59
2022/07/27 01:41:17;;;;;;;4.55;4.00;;;;;;;18.94;100.00;97466.19;1847337;77;20837;-62
2022/07/27 01:43:45;;;;;;;4.08;3.67;;;;;;;18.94;100.00;97471.61;1847332;77;20891;-60
2022/07/27 01:46:11;;;;;;;3.95;3.55;;;;;;;18.92;100.00;97481.25;1847325;77;21105;-58
2022/07/27 01:48:38;;;;;;;3.45;3.15;;;;;;;18.90;100.00;97482.97;1847270;77;20982;-61
2022/07/27 01:51:06;;;;;;;2.98;2.70;;;;;;;18.88;100.00;97478.48;1847191;77;20828;-59
2022/07/27 01:53:34;;;;;;;3.52;2.40;;;;;;;18.84;100.00;97476.83;1847317;77;20880;-59
2022/07/27 01:56:01;;;;;;;2.45;2.25;;;;;;;18.80;100.00;97482.73;1847670;77;20970;-60
2022/07/27 01:58:27;;;;;;;3.35;2.58;;;;;;;18.79;100.00;97479.82;1847226;77;21141;-60
2022/07/27 02:00:54;;;;;;;3.05;2.72;;;;;;;18.78;100.00;97484.45;1847250;77;20892;-60
2022/07/27 02:03:20;;;;;;;3.25;2.95;;;;;;;18.77;100.00;97485.58;1847326;77;20868;-59
2022/07/27 02:05:47;;;;;;;2.80;2.60;;;;;;;18.75;100.00;97485.16;1847165;77;20915;-59
2022/07/27 02:08:14;;;;;;;3.33;2.70;;;;;;;18.75;100.00;97487.87;1847325;77;20940;-60
2022/07/27 02:13:28;;;;;;;3.62;2.85;;;;;;;18.74;100.00;97491.73;1847173;77;20998;-60
2022/07/27 02:15:55;;;;;;;3.12;2.80;;;;;;;18.72;100.00;97487.24;1847300;77;21311;-59
2022/07/27 02:18:22;;;;;;;2.80;2.55;;;;;;;18.71;100.00;97493.80;1847209;77;20916;-60
2022/07/27 02:20:49;;;;;;;2.65;2.45;;;;;;;18.68;100.00;97495.85;1847559;77;21454;-59
2022/07/27 02:23:15;;;;;;;2.08;1.92;;;;;;;18.65;100.00;97499.30;1847192;77;21250;-59
2022/07/27 02:25:42;;;;;;;2.75;2.02;;;;;;;18.62;100.00;97504.06;1847241;77;20912;-61
2022/07/27 02:28:09;;;;;;;2.80;2.50;;;;;;;18.59;100.00;97500.69;1847525;77;21438;-59
2022/07/27 02:30:35;;;;;;;3.15;2.83;;;;;;;18.62;100.00;97505.42;1847267;77;20940;-60
2022/07/27 02:33:02;;;;;;;2.83;2.62;;;;;;;18.62;100.00;97507.34;1847231;77;20880;-60
2022/07/27 02:35:28;;;;;;;3.35;2.70;;;;;;;18.62;100.00;97508.69;1847204;77;21052;-61
2022/07/27 02:37:55;;;;;;;3.70;2.72;;;;;;;18.59;100.00;97516.97;1847250;77;20980;-60
2022/07/27 02:40:21;;;;;;;3.10;2.52;;;;;;;18.58;100.00;97518.13;1847532;77;21489;-59
2022/07/27 02:42:48;;;;;;;3.55;2.02;;;;;;;18.58;100.00;97522.19;1847288;77;20994;-59
2022/07/27 02:45:14;;;;;;;2.62;2.10;;;;;;;18.55;100.00;97514.75;1847189;77;20836;-59
2022/07/27 02:47:42;;;;;;;3.45;1.90;;;;;;;18.52;100.00;97541.20;1847190;77;21928;-61
2022/07/27 02:50:09;;;;;;;4.42;2.22;;;;;;;18.51;100.00;97532.08;1847116;77;20916;-59
2022/07/27 02:52:36;;;;;;;2.22;1.90;;;;;;;18.49;100.00;97527.58;1847384;77;21372;-59
2022/07/27 02:55:05;;;;;;;1.60;1.45;;;;;;;18.45;100.00;97528.81;1847179;77;20908;-59
2022/07/27 02:57:34;;;;;;;1.72;1.30;;;;;;;18.39;100.00;97531.59;1847194;77;21463;-60
2022/07/27 03:00:00;;;;;;;1.57;1.20;;;;;;;18.35;100.00;97541.54;1847159;77;21063;-60
2022/07/27 03:02:26;;;;;;;1.67;1.27;;;;;;;18.33;100.00;97543.81;1847124;77;20928;-60
2022/07/27 03:04:53;;;;;;;1.85;1.30;;;;;;;18.31;100.00;97543.38;1847175;77;20853;-60
2022/07/27 03:07:19;;;;;;;1.20;1.10;;;;;;;18.33;100.00;97551.95;1847228;77;20924;-60
2022/07/27 03:09:46;;;;;;;1.00;0.90;;;;;;;18.35;100.00;97545.61;1847324;77;20941;-58
2022/07/27 03:12:13;;;;;;;3.12;1.02;;;;;;;18.36;100.00;97543.12;1844239;77;21231;-60
2022/07/27 03:14:40;;;;;;;0.95;0.90;;;;;;;18.37;100.00;97550.13;1841537;78;21396;-60
2022/07/27 03:17:07;;;;;;;1.42;1.07;;;;;;;18.38;100.00;97558.47;1841415;78;20829;-59
2022/07/27 03:19:33;;;;;;;1.17;1.02;;;;;;;18.40;100.00;97566.47;1841422;78;20924;-60
2022/07/27 03:22:00;;;;;;;1.67;1.05;;;;;;;18.40;100.00;97568.39;1841571;78;20920;-58
2022/07/27 03:24:27;;;;;;;1.72;1.25;;;;;;;18.36;100.00;97567.53;1841727;78;21351;-60
2022/07/27 03:26:53;;;;;;;2.27;1.15;;;;;;;18.36;100.00;97570.23;1841445;78;20915;-60
2022/07/27 03:29:20;;;;;;;1.65;1.20;;;;;;;18.36;100.00;97563.45;1841440;78;20955;-59
2022/07/27 03:31:47;;;;;;;1.82;1.40;;;;;;;18.37;100.00;97560.39;1841520;78;20912;-60
2022/07/27 03:34:14;;;;;;;1.82;1.40;;;;;;;18.39;100.00;97566.83;1841570;78;20945;-58
2022/07/27 03:36:42;;;;;;;1.75;1.60;;;;;;;18.38;100.00;97564.69;1841433;78;21057;-61
2022/07/27 03:39:09;;;;;;;1.42;1.32;;;;;;;18.36;100.00;97567.53;1841350;78;20990;-59
2022/07/27 03:41:35;;;;;;;2.20;1.55;;;;;;;18.33;100.00;97577.70;1841542;78;20872;-61
2022/07/27 03:44:02;;;;;;;2.25;1.90;;;;;;;18.31;100.00;97576.71;1841513;78;20947;-59
2022/07/27 03:46:29;;;;;;;3.98;2.30;;;;;;;18.28;100.00;97582.03;1841506;78;20924;-59
2022/07/27 03:48:56;;;;;;;2.25;2.00;;;;;;;18.30;100.00;97582.49;1841519;78;21238;-61
2022/07/27 03:51:23;;;;;;;2.50;2.30;;;;;;;18.27;100.00;97579.12;1841349;78;20891;-60
2022/07/27 03:53:49;;;;;;;2.35;2.15;;;;;;;18.23;100.00;97574.95;1841397;78;20948;-60
2022/07/27 03:56:16;;;;;;;2.92;2.15;;;;;;;18.21;100.00;97576.44;1841393;78;20995;-62
2022/07/27 03:58:43;;;;;;;2.47;2.25;;;;;;;18.17;100.00;97575.00;1841541;78;20869;-61
2022/07/27 04:01:10;;;;;;;3.85;2.02;;;;;;;18.17;100.00;97566.08;1841501;78;21110;-60
2022/07/27 04:03:37;;;;;;;2.62;1.95;;;;;;;18.17;100.00;97571.50;1841489;78;20865;-61
2022/07/27 04:06:03;;;;;;;2.52;1.95;;;;;;;18.15;100.00;97570.50;1841487;78;20865;-61
2022/07/27 04:08:29;;;;;;;2.50;2.20;;;;;;;18.14;100.00;97570.83;1841338;78;21478;-61
2022/07/27 04:10:56;;;;;;;2.52;2.05;;;;;;;18.10;100.00;97568.61;1841526;78;20895;-60
2022/07/27 04:13:23;;;;;;;2.70;2.50;;;;;;;18.08;100.00;97577.09;1841339;78;21168;-60
2022/07/27 04:15:49;;;;;;;3.33;2.30;;;;;;;18.07;100.00;97574.16;1841418;78;20903;-61
2022/07/27 04:18:15;;;;;;;3.05;2.42;;;;;;;18.08;100.00;97577.66;1841385;78;20868;-61
2022/07/27 04:20:42;;;;;;;3.15;2.35;;;;;;;18.09;100.00;97581.95;1841361;78;20873;-61
2022/07/27 04:23:09;;;;;;;3.00;2.60;;;;;;;18.10;100.00;97574.83;1841381;78;20994;-61
2022/07/27 04:25:36;;;;;;;3.12;2.83;;;;;;;18.10;100.00;97571.32;1841361;78;21093;-61
2022/07/27 04:28:04;;;;;;;3.83;2.62;;;;;;;18.10;100.00;97574.03;1841405;78;20865;-61
2022/07/27 04:30:31;;;;;;;3.42;2.50;;;;;;;18.07;100.00;97564.67;1841450;78;21392;-60
2022/07/27 04:32:58;;;;;;;3.20;2.60;;;;;;;18.03;100.00;97569.22;1841351;78;20872;-62
2022/07/27 04:35:24;;;;;;;4.33;2.67;;;;;;;18.03;100.00;97572.49;1841500;78;20904;-60
2022/07/27 04:37:51;;;;;;;5.33;2.92;;;;;;;18.01;100.00;97571.50;1841482;78;21245;-61
2022/07/27 04:40:17;;;;;;;3.70;2.70;;;;;;;18.02;100.00;97573.61;1841411;78;20833;-60
2022/07/27 04:42:43;;;;;;;3.00;2.70;;;;;;;18.07;100.00;97576.08;1841361;78;20972;-62
2022/07/27 04:45:10;;;;;;;3.27;2.35;;;;;;;18.09;100.00;97576.53;1841465;78;20920;-62
2022/07/27 04:47:37;;;;;;;3.22;2.80;;;;;;;18.09;100.00;97577.30;1841474;78;20865;-59
2022/07/27 04:50:05;;;;;;;3.55;3.25;;;;;;;18.14;100.00;97589.80;1841365;78;21236;-61
2022/07/27 04:52:31;;;;;;;5.15;2.70;;;;;;;18.12;100.00;97586.09;1841484;78;20955;-60
2022/07/27 04:54:58;;;;;;;3.70;2.80;;;;;;;18.11;100.00;97587.22;1841424;78;21533;-60
2022/07/27 04:57:24;;;;;;;2.67;2.47;;;;;;;18.14;100.00;97587.89;1841328;78;20884;-60
2022/07/27 04:59:51;;;;;;;2.87;2.25;;;;;;;18.16;100.00;97591.63;1841348;78;20951;-60
2022/07/27 05:02:18;;;;;;;2.50;2.22;;;;;;;18.17;100.00;97595.89;1841416;78;21121;-60
2022/07/27 05:04:45;;;;;;;2.75;2.08;;;;;;;18.09;100.00;97607.70;1841281;78;20869;-60
2022/07/27 05:07:11;;;;;;;3.45;2.27;;;;;;;17.99;100.00;97605.49;1841619;78;21435;-60
2022/07/27 05:09:37;;;;;;;3.00;2.70;;;;;;;17.89;100.00;97608.14;1841655;78;21427;-60
2022/07/27 05:12:06;;;;;;;8.10;2.75;;;;;;;17.85;100.00;97609.17;1840323;77;20983;-61
2022/07/27 05:14:34;;;;;;;3.33;2.65;;;;;;;17.81;100.00;97608.27;1835529;78;20830;-62
2022/07/27 05:17:01;;;;;;;4.60;3.00;;;;;;;17.78;100.00;97615.76;1835398;78;20963;-60
2022/07/27 05:19:27;;;;;;;3.37;2.55;;;;;;;17.75;100.00;97610.47;1835565;78;20857;-60
2022/07/27 05:21:53;;;;;;;3.87;2.70;;;;;;;17.72;100.00;97620.06;1814633;78;21368;-60
2022/07/27 05:24:20;;;;;;;3.22;3.00;;;;;;;17.69;100.00;97617.23;1835457;78;20970;-59
2022/07/27 05:26:46;;;;;;;3.10;2.80;;;;;;;17.69;100.00;97624.81;1835436;78;21106;-61
2022/07/27 05:29:13;;;;;;;4.00;3.00;;;;;;;17.68;100.00;97624.60;1835394;78;20904;-60
2022/07/27 05:31:39;;;;;;;4.05;3.65;;;;;;;17.71;100.00;97626.60;1835443;78;20900;-61
2022/07/27 05:34:07;;;;;;;4.40;3.62;;;;;;;17.72;100.00;97621.98;1826382;77;21347;-61
2022/07/27 05:36:34;;;;;;;4.35;3.42;;;;;;;17.71;100.00;97634.73;1829096;76;20916;-58
2022/07/27 05:39:04;;;;;;;4.25;3.50;;;;;;;17.72;100.00;97630.10;1832879;77;21122;-58
2022/07/27 05:41:32;;;;;;;6.83;4.00;;;;;;;17.71;100.00;97640.14;1821472;77;21035;-61
2022/07/27 05:43:59;;;;;;;9.45;4.10;;;;;;;17.72;100.00;97638.23;1828638;77;20990;-60
2022/07/27 05:46:25;;;;;;;4.87;3.92;;;;;;;17.70;100.00;97639.94;1841016;77;20901;-59
2022/07/27 05:48:52;;;;;;;5.67;3.95;;;;;;;17.66;100.00;97630.91;1839579;77;21023;-60
2022/07/27 05:51:19;;;;;;;5.92;4.12;;;;;;;17.65;100.00;97643.45;1819322;77;21087;-60
2022/07/27 05:53:46;;;;;;;5.17;4.35;;;;;;;17.64;100.00;97645.36;1823675;77;21497;-61
2022/07/27 05:56:14;;;;;;;4.00;3.52;;;;;;;17.63;100.00;97646.51;1817328;79;20905;-61
2022/07/27 05:58:41;;;;;;;4.65;3.87;;;;;;;17.65;100.00;97648.86;1828990;77;20938;-61
2022/07/27 06:01:09;;;;;;;4.37;3.80;;;;;;;17.67;100.00;97644.68;1818516;77;36074;-60
2022/07/27 06:03:37;;;;;;;5.50;4.05;;;;;;;17.67;100.00;97650.66;1827574;77;21172;-60
2022/07/27 06:08:51;;;;;;;6.20;3.70;;;;;;;17.68;100.00;97648.98;1829445;77;21018;-60
2022/07/27 06:11:18;;;;;;;5.33;3.55;;;;;;;17.67;100.00;97658.78;1819085;77;20967;-60
2022/07/27 06:13:46;;;;;;;4.60;3.50;;;;;;;17.68;100.00;97659.81;1842250;77;20940;-59
2022/07/27 06:16:13;;;;;;;5.03;3.60;;;;;;;17.71;100.00;97656.39;1836854;77;21300;-60
2022/07/27 06:18:39;;;;;;;5.83;3.67;;;;;;;17.75;100.00;97659.22;1822188;77;21011;-60
2022/07/27 06:21:06;;;;;;;5.37;3.85;;;;;;;17.73;100.00;97660.13;1831784;77;21533;-59
2022/07/27 06:23:33;;;;;;;7.80;3.35;;;;;;;17.70;100.00;97664.88;1818564;77;21534;-60
2022/07/27 06:25:59;;;;;;;4.45;3.60;;;;;;;17.71;100.00;97665.88;1815421;77;21052;-60
2022/07/27 06:28:27;;;;;;;3.52;3.22;;;;;;;17.75;100.00;97670.05;1842704;77;20864;-60
2022/07/27 06:30:54;;;;;;;7.53;3.83;;;;;;;17.76;100.00;97668.34;1832759;77;21046;-61
2022/07/27 06:33:27;;;;;;;4.30;3.67;;;;;;;17.76;100.00;97664.28;1819405;77;20899;-62
2022/07/27 06:35:55;;;;;;;4.72;3.30;;;;;;;17.78;100.00;97669.94;1837650;77;20884;-62
2022/07/27 06:38:23;;;;;;;7.10;4.30;;;;;;;17.74;100.00;97667.11;1766270;79;22227;-61
2022/07/27 06:40:53;;;;;;;4.80;3.85;;;;;;;17.72;100.00;97672.88;1785636;79;21114;-61
2022/07/27 06:43:21;;;;;;;5.10;3.92;;;;;;;17.74;100.00;97673.88;1763154;80;20981;-61
2022/07/27 06:45:48;;;;;;;9.83;4.60;;;;;;;17.76;100.00;97677.03;1757183;80;21630;-61
2022/07/27 06:48:15;;;;;;;5.67;4.33;;;;;;;17.78;100.00;97678.06;1754247;80;21412;-60
2022/07/27 06:50:43;;;;;;;7.83;4.47;;;;;;;17.80;100.00;97685.27;1788621;79;21048;-59
2022/07/27 06:53:10;;;;;;;5.40;4.28;;;;;;;17.76;100.00;97693.28;1793426;79;21668;-61
2022/07/27 06:55:40;;;;;;;5.25;4.10;;;;;;;17.67;100.00;97699.41;1791257;79;21032;-60
2022/07/27 06:58:07;;;;;;;5.75;4.85;;;;;;;17.60;100.00;97695.93;1768896;80;21551;-62
2022/07/27 07:00:34;;;;;;;6.95;4.05;;;;;;;17.54;100.00;97697.31;1762206;79;21025;-60
2022/07/27 07:03:02;;;;;;;5.67;4.15;;;;;;;17.52;100.00;97698.78;1788911;79;21660;-60
2022/07/27 07:05:30;;;;;;;6.60;4.67;;;;;;;17.49;100.00;97696.72;1784866;79;21847;-60
2022/07/27 07:07:57;;;;;;;9.65;6.62;;;;;;;17.50;100.00;97697.72;1783308;79;21014;-61
2022/07/27 07:10:25;;;;;;;7.87;5.42;;;;;;;17.51;100.00;97697.98;1766036;80;21686;-61
2022/07/27 07:12:54;;;;;;;6.12;4.17;;;;;;;17.54;100.00;97702.73;1772513;80;21084;-60
2022/07/27 07:15:23;;;;;;;5.60;4.33;;;;;;;17.56;100.00;97700.47;1769819;80;21085;-60
2022/07/27 07:17:53;;;;;;;7.35;5.33;;;;;;;17.62;100.00;97692.31;1772823;80;21108;-61
2022/07/27 07:20:19;;;;;;;8.15;7.17;;;;;;;17.66;100.00;97699.97;1836708;77;21026;-61
2022/07/27 07:22:46;;;;;;;6.80;6.00;;;;;;;17.71;100.00;97698.38;1825677;77;20993;-58
2022/07/27 07:25:12;;;;;;;7.55;5.53;;;;;;;17.78;100.00;97699.73;1828816;76;21067;-59
2022/07/27 07:27:39;;;;;;;7.83;5.65;;;;;;;17.83;100.00;97704.91;1831022;77;21072;-60
2022/07/27 07:30:07;;;;;;;7.22;5.17;;;;;;;17.82;100.00;97712.80;1818745;77;21118;-60
2022/07/27 07:32:34;;;;;;;6.10;5.50;;;;;;;17.78;100.00;97709.41;1822900;77;20982;-61
2022/07/27 07:35:02;;;;;;;9.73;6.00;;;;;;;17.72;100.00;97714.86;1818479;77;20922;-61
2022/07/27 07:37:31;;;;;;;10.15;6.37;;;;;;;17.66;100.00;97717.56;1824273;77;21610;-60
2022/07/27 07:39:58;;;;;;;9.48;6.45;;;;;;;17.61;100.00;97724.60;1827266;77;21042;-61
2022/07/27 07:42:25;;;;;;;11.28;6.75;;;;;;;17.57;100.00;97732.40;1815942;77;21321;-60
2022/07/27 07:44:51;;;;;;;12.82;7.70;;;;;;;17.55;100.00;97736.78;1826545;77;20936;-60
2022/07/27 07:47:19;;;;;;;10.05;6.83;;;;;;;17.54;100.00;97740.64;1827806;77;20955;-61
2022/07/27 07:49:45;;;;;;;10.30;6.78;;;;;;;17.50;100.00;97735.63;1828441;77;21030;-60
2022/07/27 07:52:12;;;;;;;8.88;6.83;;;;;;;17.44;100.00;97735.65;1832906;77;21000;-60
2022/07/27 07:54:38;;;;;;;8.15;6.47;;;;;;;17.42;100.00;97737.91;1833047;77;21415;-58
2022/07/27 07:57:05;;;;;;;7.78;6.53;;;;;;;17.46;100.00;97741.51;1824876;77;21023;-59
2022/07/27 07:59:32;;;;;;;10.90;6.78;;;;;;;17.50;100.00;97745.10;1828909;77;21110;-59
2022/07/27 08:02:02;;;;;;;12.68;6.28;;;;;;;17.53;100.00;97748.52;1830466;77;20984;-60
2022/07/27 08:04:27;;;;;;;7.67;5.45;;;;;;;17.53;100.00;97747.17;1825736;77;20876;-59
2022/07/27 08:06:58;;;;;;;9.70;5.90;;;;;;;17.52;100.00;97742.88;1838319;77;21265;-60
2022/07/27 08:09:27;;;;;;;7.35;5.95;;;;;;;17.50;100.00;97751.11;1828737;77;20963;-60
2022/07/27 08:11:55;;;;;;;10.05;5.47;;;;;;;17.51;100.00;97741.84;1829742;77;20938;-60
2022/07/27 08:14:25;;;;;;;6.72;5.10;;;;;;;17.56;100.00;97749.20;1826490;77;21065;-59
2022/07/27 08:16:52;;;;;;;6.97;4.70;;;;;;;17.62;100.00;97751.89;1819115;78;20969;-60
2022/07/27 08:19:19;;;;;;;7.53;5.12;;;;;;;17.64;100.00;97757.75;1820543;78;21124;-59
2022/07/27 08:21:45;;;;;;;7.08;4.80;;;;;;;17.68;100.00;97757.31;1829353;78;20941;-59
2022/07/27 08:24:12;;;;;;;6.28;4.70;;;;;;;17.78;100.00;97760.88;1809499;78;21434;-58
2022/07/27 08:26:38;;;;;;;6.30;4.67;;;;;;;17.90;100.00;97759.30;1822764;78;21485;-59
2022/07/27 08:29:09;;;;;;;5.70;4.37;;;;;;;17.99;100.00;97758.59;1825442;78;21564;-59
2022/07/27 08:31:38;;;;;;;8.25;4.70;;;;;;;18.02;100.00;97761.94;1796632;78;21217;-59
2022/07/27 08:34:04;;;;;;;7.87;5.22;;;;;;;18.07;100.00;97764.41;1791719;78;21039;-60
2022/07/27 08:36:31;;;;;;;5.15;4.65;;;;;;;18.08;100.00;97757.88;1797493;79;21073;-59
2022/07/27 08:39:03;;;;;;;6.78;4.78;;;;;;;18.09;100.00;97767.01;1815493;77;21094;-59
2022/07/27 08:41:28;;;;;;;8.15;5.30;;;;;;;18.10;100.00;97774.02;1818875;78;21613;-58
2022/07/27 08:43:55;;;;;;;6.83;5.22;;;;;;;18.09;100.00;97764.30;1777172;78;22049;-58
2022/07/27 08:46:21;;;;;;;5.40;4.28;;;;;;;18.10;100.00;97770.52;1773335;79;21364;-58
2022/07/27 08:48:47;;;;;;;7.35;4.40;;;;;;;18.13;100.00;97777.97;1821681;78;21006;-58
2022/07/27 08:51:14;;;;;;;7.75;5.55;;;;;;;18.17;100.00;97776.13;1815626;78;20930;-58
2022/07/27 08:53:41;;;;;;;9.20;4.97;;;;;;;18.21;100.00;97779.73;1818925;78;21078;-58
2022/07/27 08:56:09;;;;;;;5.45;4.55;;;;;;;18.24;100.00;97776.34;1802403;78;21033;-58
2022/07/27 08:58:38;;;;;;;7.65;4.87;;;;;;;18.28;100.00;97766.38;1784416;80;21551;-58
2022/07/27 09:01:04;;;;;;;5.42;4.72;;;;;;;18.33;100.00;97768.28;1823459;78;21478;-58
2022/07/27 09:03:32;;;;;;;8.93;5.25;;;;;;;18.36;100.00;97764.09;1824241;78;20986;-60
2022/07/27 09:05:59;;;;;;;9.43;5.83;;;;;;;18.33;100.00;97771.55;1810062;78;21086;-58
2022/07/27 09:08:27;;;;;;;6.53;5.15;;;;;;;18.30;100.00;97772.27;1823411;78;21065;-59
2022/07/27 09:10:55;;;;;;;6.72;4.97;;;;;;;18.28;100.00;97767.73;1810402;78;21011;-58
2022/07/27 09:13:28;;;;;;;8.13;4.55;;;;;;;18.32;100.00;97764.56;1821457;77;20999;-59
2022/07/27 09:16:04;;;;;;;6.50;4.33;;;;;;;18.38;100.00;97766.68;1816470;77;21100;-58
2022/07/27 09:18:32;;;;;;;7.62;4.65;;;;;;;18.42;100.00;97773.54;1839171;77;21043;-59
2022/07/27 09:21:22;;;;;;;7.45;4.08;;;;;;;18.46;100.00;97773.13;1829473;76;21101;-58
2022/07/27 09:23:54;;;;;;;7.12;4.08;;;;;;;18.52;100.00;97764.94;1834108;77;21099;-59
2022/07/27 09:26:28;;;;;;;6.08;3.52;;;;;;;18.73;99.93;97770.93;1826611;77;21090;-60
2022/07/27 09:28:57;;;;;;;4.03;3.45;;;;;;;19.01;99.86;97770.86;1835749;77;21036;-60
2022/07/27 09:31:24;;;;;;;5.37;3.90;;;;;;;19.39;99.81;97766.98;1837222;77;21438;-61
2022/07/27 09:33:53;;;;;;;4.00;3.30;;;;;;;19.76;97.21;97764.70;1836040;77;21083;-61
2022/07/27 09:36:23;;;;;;;4.55;3.45;;;;;;;20.07;93.93;97761.88;1828708;77;21621;-61
2022/07/27 09:39:09;;;;;;;4.85;2.72;;;;;;;20.27;92.53;97764.07;1830890;77;20931;-61
2022/07/27 09:41:41;;;;;;;4.12;2.40;;;;;;;20.45;92.37;97762.48;1837260;77;21054;-60
2022/07/27 09:44:10;;;;;;;7.53;2.80;;;;;;;20.67;88.55;97763.67;1834944;77;21546;-60
2022/07/27 09:46:39;;;;;;;3.83;2.90;;;;;;;20.75;88.05;97772.19;1820998;78;21507;-59
2022/07/27 09:49:08;;;;;;;4.78;2.80;;;;;;;20.85;88.18;97775.08;1834702;77;21024;-59
2022/07/27 09:51:44;;;;;;;2.45;2.17;;;;;;;20.92;87.54;97779.86;1809758;77;21050;-60
2022/07/27 09:54:11;;;;;;;;;;;;;;;21.08;86.20;97784.07;1833762;77;21027;-59
2022/07/27 09:56:42;;;;;;;3.77;2.50;;;;;;;21.15;85.00;97788.84;1827276;77;20273;-60
2022/07/27 09:59:15;;;;;;;2.95;2.65;;;;;;;21.20;84.51;97793.99;1804164;77;21151;-60
2022/07/27 10:01:43;;;;;;;3.95;2.33;;;;;;;21.32;83.65;97793.80;1809652;77;21385;-59
2022/07/27 10:04:15;;;;;;;2.47;2.00;;;;;;;21.53;84.70;97803.68;1831769;77;20931;-60
2022/07/27 10:06:41;;;;;;;3.92;2.33;;;;;;;21.69;82.33;97804.31;1836879;77;21102;-61
2022/07/27 10:09:08;;;;;;;3.37;2.22;;;;;;;21.67;81.91;97806.62;1829283;77;21086;-60
2022/07/27 10:11:35;;;;;;;2.42;2.10;;;;;;;21.59;81.87;97815.86;1829742;77;21963;-59
2022/07/27 10:14:03;;;;;;;3.12;2.42;;;;;;;21.58;80.31;97811.55;1826733;77;20960;-59
2022/07/27 10:16:32;;;;;;;3.45;2.12;;;;;;;21.63;80.40;97811.80;1783097;77;21394;-57
2022/07/27 10:19:26;;;;;;;5.25;2.30;;;;;;;21.77;80.08;97807.36;1787490;77;20994;-58
2022/07/27 10:21:53;;;;;;;4.45;2.10;;;;;;;22.03;79.11;97808.52;1804576;79;21025;-59
2022/07/27 10:24:35;;;;;;;4.45;2.20;;;;;;;22.13;75.81;97811.98;1800796;77;21084;-60
2022/07/27 10:26:58;;;;;;;2.45;1.80;;;;;;;22.04;75.39;97815.56;1800876;77;20844;-58
2022/07/27 10:29:25;;;;;;;3.15;1.77;;;;;;;21.97;77.18;97815.46;1777983;77;21072;-58
2022/07/27 10:31:56;;;;;;;3.67;1.72;;;;;;;21.97;75.73;97825.00;1798683;79;21113;-58
2022/07/27 10:34:38;;;;;;;3.55;1.70;;;;;;;21.92;77.10;97816.56;1800064;79;21116;-59
2022/07/27 10:37:28;;;;;;;2.52;1.75;;;;;;;21.95;74.94;97813.69;1799211;79;21206;-60
2022/07/27 10:42:45;;;;;;;2.45;1.90;;;;;;;21.97;75.46;97820.34;1800403;79;20954;-58
2022/07/27 10:45:13;;;;;;;3.80;2.20;;;;;;;21.83;74.67;97816.02;1801423;79;20982;-60
2022/07/27 10:47:51;;;;;;;6.53;2.52;;;;;;;21.73;75.77;97827.55;1801398;79;21584;-59
2022/07/27 10:50:25;;;;;;;2.27;1.80;;;;;;;21.83;75.87;97824.96;1851141;77;21659;-59
2022/07/27 10:52:57;;;;;;;3.37;1.75;;;;;;;22.11;75.71;97825.20;1855149;77;20971;-59
2022/07/27 10:55:35;;;;;;;4.03;2.05;;;;;;;22.44;76.10;97830.70;1847792;77;21489;-60
2022/07/27 10:58:17;;;;;;;5.22;1.80;;;;;;;22.74;75.18;97828.74;1809901;79;20924;-61
2022/07/27 11:00:55;;;;;;;3.40;1.80;;;;;;;22.86;71.88;97831.22;1810143;79;20884;-61
2022/07/27 11:03:35;;;;;;;3.20;1.72;;;;;;;22.82;70.83;97833.11;1810083;79;21986;-61
2022/07/27 11:06:13;;;;;;;5.47;3.05;;;;;;;22.75;72.07;97834.39;1793214;79;20933;-60
2022/07/27 11:08:44;;;;;;;3.35;1.70;;;;;;;22.80;73.67;97831.33;1847068;77;20916;-60
2022/07/27 11:11:20;;;;;;;3.27;1.70;;;;;;;22.90;69.99;97836.70;1855421;77;20957;-61
2022/07/27 11:13:54;;;;;;;3.08;1.62;;;;;;;22.86;69.16;97839.41;1854105;76;21128;-59
2022/07/27 11:16:22;;;;;;;1.82;1.50;;;;;;;22.78;68.90;97839.69;1849203;77;21108;-59
2022/07/27 11:18:57;;;;;;;1.62;1.30;;;;;;;22.81;69.52;97845.20;1849076;77;20903;-60
2022/07/27 11:21:35;;;;;;;2.50;1.62;;;;;;;22.85;68.83;97846.02;1849553;77;20861;-60
2022/07/27 11:24:12;;;;;;;8.50;1.80;;;;;;;22.92;69.20;97845.30;1828086;76;20983;-59
2022/07/27 11:26:47;;;;;;;2.98;1.37;;;;;;;23.19;70.14;97848.70;1827682;76;21439;-61
2022/07/27 11:29:17;;;;;;;3.20;1.52;;;;;;;23.34;66.38;97842.98;1846617;77;20967;-59
2022/07/27 11:31:45;;;;;;;2.98;1.50;;;;;;;23.26;67.42;97845.47;1828021;77;20896;-61
2022/07/27 11:34:16;;;;;;;7.00;1.50;;;;;;;23.15;67.10;97839.13;1836553;77;20950;-59
2022/07/27 11:36:47;;;;;;;3.50;1.80;;;;;;;23.18;66.32;97845.77;1843161;77;21002;-60
2022/07/27 11:39:23;;;;;;;2.45;1.50;;;;;;;23.42;66.11;97839.77;1839306;77;21463;-60
2022/07/27 11:41:53;;;;;;;4.35;1.62;;;;;;;23.75;66.91;97828.72;1815808;79;21816;-60
2022/07/27 11:44:19;;;;;;;1.95;1.60;;;;;;;24.23;66.56;97828.86;1825241;77;21010;-59